Time;durP1;ratioP1;P1;durP2;ratioP2;P2;SDS_P1;SDS_P2;PMS_P1;PMS_P2;Temp;Humidity;BMP_temperature;BMP_pressure;BME280_temperature;BME280_humidity;BME280_pressure;Samples;Min_cycle;Max_cycle;Signal;HPM_P1;HPM_P2
2022/06/21 06:55:46;;;;;;;5.25;2.17;;;;;;;30.19;33.04;97933.45;1694855;83;21101;-72
2022/06/21 06:58:36;;;;;;;4.83;2.20;;;;;;;29.92;32.90;97939.64;1712635;81;22243;-70
2022/06/21 07:01:15;;;;;;;7.60;2.00;;;;;;;29.59;33.29;97937.30;1733823;80;21280;-72
2022/06/21 07:03:47;;;;;;;3.65;2.35;;;;;;;29.35;33.98;97934.14;1714775;81;21055;-76
2022/06/21 07:06:22;;;;;;;4.03;2.22;;;;;;;29.24;34.55;97937.52;1699909;82;21061;-77
2022/06/21 07:08:59;;;;;;;5.80;2.40;;;;;;;29.21;34.53;97941.45;1703889;81;21133;-73
2022/06/21 07:11:44;;;;;;;4.87;1.95;;;;;;;29.17;34.79;97950.98;1746483;80;21570;-75
2022/06/21 07:14:23;;;;;;;7.95;2.02;;;;;;;29.09;34.36;97950.73;1763189;80;21085;-71
2022/06/21 07:17:03;;;;;;;6.85;2.10;;;;;;;28.92;34.66;97954.98;1746980;80;22470;-73
2022/06/21 07:19:32;;;;;;;6.65;2.40;;;;;;;28.82;35.33;97953.81;1747636;80;21054;-71
2022/06/21 07:21:59;;;;;;;7.85;2.45;;;;;;;28.80;35.59;97948.67;1752950;80;21712;-73
2022/06/21 07:24:27;;;;;;;3.87;2.37;;;;;;;28.79;35.56;97955.03;1746380;80;21038;-73
2022/06/21 07:27:04;;;;;;;4.92;2.25;;;;;;;28.72;35.75;97956.43;1754027;79;21032;-73
2022/06/21 07:29:36;;;;;;;4.03;1.80;;;;;;;28.70;36.05;97957.16;1745431;80;21672;-73
2022/06/21 07:32:07;;;;;;;7.42;2.17;;;;;;;28.73;36.04;97963.42;1751712;80;21954;-71
2022/06/21 07:34:42;;;;;;;4.03;2.00;;;;;;;28.71;36.18;97951.29;1766604;80;21245;-74
2022/06/21 07:37:17;;;;;;;4.20;2.20;;;;;;;28.70;36.21;97949.13;1763746;79;21066;-72
2022/06/21 07:39:51;;;;;;;4.47;1.90;;;;;;;28.69;36.64;97940.80;1756363;79;21135;-71
2022/06/21 07:42:25;;;;;;;6.83;2.10;;;;;;;28.77;36.60;97933.86;1764498;79;20998;-71
2022/06/21 07:45:00;;;;;;;5.55;2.22;;;;;;;28.87;36.80;97931.23;1758446;79;20926;-71
2022/06/21 07:47:41;;;;;;;4.37;2.30;;;;;;;29.00;36.88;97939.98;1751592;80;21822;-71
2022/06/21 07:50:32;;;;;;;5.10;2.50;;;;;;;29.11;36.42;97945.98;1757498;80;21070;-71
2022/06/21 07:53:17;;;;;;;10.53;2.25;;;;;;;29.12;36.28;97940.11;1749926;80;20955;-71
2022/06/21 07:55:48;;;;;;;15.32;2.75;;;;;;;29.17;36.34;97944.30;1731684;80;22218;-74
2022/06/21 07:58:31;;;;;;;8.35;2.33;;;;;;;29.25;36.30;97941.31;1710800;82;21026;-72
2022/06/21 08:06:41;;;;;;;3.20;2.00;;;;;;;29.48;36.38;97933.52;1670884;82;21057;-71
2022/06/21 08:09:31;;;;;;;3.20;1.77;;;;;;;29.62;36.20;97927.48;1700706;82;21096;-74
2022/06/21 08:12:01;;;;;;;9.60;2.10;;;;;;;29.81;35.83;97922.43;1728126;81;21352;-73
2022/06/21 08:14:32;;;;;;;5.95;2.75;;;;;;;30.07;35.61;97919.99;1728016;81;21312;-71
2022/06/21 08:17:17;;;;;;;10.10;2.55;;;;;;;30.28;35.24;97925.92;1717571;81;20999;-74
2022/06/21 08:20:23;;;;;;;9.00;2.47;;;;;;;30.44;34.98;97923.94;1698700;83;21408;-72
2022/06/21 08:23:11;;;;;;;5.10;2.45;;;;;;;30.54;35.00;97917.52;1699335;83;21450;-73
2022/06/21 08:25:56;;;;;;;5.40;2.33;;;;;;;30.66;34.85;97910.33;1695001;83;21201;-74
2022/06/21 08:28:43;;;;;;;3.02;2.30;;;;;;;30.79;34.94;97917.35;1642751;84;22534;-72
2022/06/21 08:31:14;;;;;;;6.37;2.58;;;;;;;30.83;34.77;97918.53;1735535;80;21108;-72
2022/06/21 08:33:55;;;;;;;4.90;2.50;;;;;;;30.83;34.77;97910.48;1700927;82;21016;-71
2022/06/21 08:36:31;;;;;;;5.08;2.30;;;;;;;30.83;34.54;97911.83;1718382;82;21163;-70
2022/06/21 08:39:09;;;;;;;8.80;2.45;;;;;;;30.77;34.89;97909.56;1719113;81;22183;-73
2022/06/21 08:42:11;;;;;;;4.42;2.55;;;;;;;30.74;35.08;97899.28;1711926;82;21247;-73
2022/06/21 08:48:25;;;;;;;4.62;2.70;;;;;;;30.65;34.78;97901.98;1720570;81;21093;-73
2022/06/21 08:51:35;;;;;;;7.72;2.47;;;;;;;30.62;35.07;97901.62;1720739;82;21080;-72
2022/06/21 08:54:11;;;;;;;6.22;4.55;;;;;;;30.64;34.99;97904.37;1667079;83;21597;-73
2022/06/21 08:56:50;;;;;;;7.78;2.83;;;;;;;30.59;34.89;97901.55;1708344;81;21782;-72
2022/06/21 08:59:34;;;;;;;4.17;2.60;;;;;;;30.60;35.17;97892.45;1720699;82;20974;-71
2022/06/21 09:02:32;;;;;;;4.78;2.65;;;;;;;30.74;35.33;97901.14;1716349;82;20963;-72
2022/06/21 09:05:10;;;;;;;4.72;2.67;;;;;;;30.87;34.79;97888.84;1717853;81;21085;-72
2022/06/21 09:08:16;;;;;;;10.18;2.72;;;;;;;30.95;35.05;97889.04;1729465;82;21241;-72
2022/06/21 09:10:53;;;;;;;11.50;2.60;;;;;;;31.06;34.59;97902.46;1721128;81;21076;-72
2022/06/21 09:13:43;;;;;;;2.77;2.17;;;;;;;31.08;34.69;97903.05;1709545;81;21573;-73
2022/06/21 09:16:18;;;;;;;5.42;2.65;;;;;;;31.15;34.67;97898.95;1729848;81;21066;-72
2022/06/21 09:19:23;;;;;;;4.70;3.33;;;;;;;31.20;34.66;97896.88;1722661;82;21028;-71
2022/06/21 09:22:07;;;;;;;7.17;2.70;;;;;;;31.23;34.63;97895.08;1694002;83;21183;-71
2022/06/21 09:24:53;;;;;;;4.87;2.62;;;;;;;31.26;34.59;97894.09;1702088;83;21688;-71
2022/06/21 09:27:28;;;;;;;3.85;2.75;;;;;;;31.33;34.81;97898.83;1713942;81;20944;-71
2022/06/21 09:30:07;;;;;;;8.70;2.65;;;;;;;31.54;34.58;97898.75;1669963;84;22104;-71
2022/06/21 09:33:06;;;;;;;5.33;2.75;;;;;;;31.76;34.44;97891.73;1684857;84;21079;-71
2022/06/21 09:36:03;;;;;;;6.47;2.83;;;;;;;31.92;33.99;97882.11;1692758;82;21265;-72
2022/06/21 09:39:00;;;;;;;6.60;3.20;;;;;;;31.98;33.74;97892.41;1727942;81;21279;-70
2022/06/21 09:42:14;;;;;;;4.35;3.35;;;;;;;32.02;33.66;97886.85;1723270;81;37669;-71
2022/06/21 09:44:58;;;;;;;4.83;2.33;;;;;;;32.08;33.43;97885.38;1725156;80;21167;-70
2022/06/21 09:47:36;;;;;;;3.67;2.98;;;;;;;32.06;33.71;97883.45;1721961;81;21067;-71
2022/06/21 09:50:26;;;;;;;8.43;3.62;;;;;;;32.13;33.82;97888.17;1724187;81;20934;-71
2022/06/21 09:53:17;;;;;;;9.33;3.90;;;;;;;32.25;33.68;97876.56;1723033;81;21035;-71
2022/06/21 09:56:21;;;;;;;4.25;2.77;;;;;;;32.33;33.36;97868.94;1727882;81;21037;-71
2022/06/21 09:59:01;;;;;;;11.90;2.98;;;;;;;32.23;33.40;97862.00;1728578;81;21006;-70
2022/06/21 10:01:46;;;;;;;6.95;3.35;;;;;;;32.11;33.61;97863.91;1729205;82;20977;-71
2022/06/21 10:04:43;;;;;;;5.92;2.92;;;;;;;31.95;34.04;97860.64;1735087;81;21159;-70
2022/06/21 10:07:40;;;;;;;6.40;3.52;;;;;;;31.93;34.38;97854.16;1708934;82;21158;-70
2022/06/21 10:10:19;;;;;;;4.62;3.52;;;;;;;31.96;34.50;97854.22;1716014;82;21554;-71
2022/06/21 10:13:07;;;;;;;6.67;3.50;;;;;;;32.10;34.22;97845.61;1726388;81;21075;-72
2022/06/21 10:16:13;;;;;;;11.18;3.95;;;;;;;32.11;34.21;97837.83;1714556;82;21169;-73
2022/06/21 10:19:04;;;;;;;10.23;3.87;;;;;;;32.15;34.25;97838.17;1721456;80;21079;-72
2022/06/21 10:21:58;;;;;;;8.10;4.33;;;;;;;32.16;34.39;97843.84;1696285;82;21258;-72
2022/06/21 10:24:46;;;;;;;5.50;3.25;;;;;;;32.18;34.39;97834.45;1721876;81;21013;-72
2022/06/21 10:27:33;;;;;;;8.38;3.90;;;;;;;32.30;34.53;97822.33;1723635;81;21012;-72
2022/06/21 10:30:10;;;;;;;5.92;2.92;;;;;;;32.39;34.58;97824.08;1729019;81;20975;-72
2022/06/21 10:33:13;;;;;;;5.10;3.40;;;;;;;32.42;34.53;97820.91;1723083;81;21085;-71
2022/06/21 10:36:02;;;;;;;;;;;;;;;32.19;34.55;97812.40;1734195;82;21549;-73
2022/06/21 10:38:57;;;;;;;5.78;3.37;;;;;;;31.87;35.19;97813.97;1735380;81;20193;-71
2022/06/21 10:41:29;;;;;;;4.53;3.08;;;;;;;31.63;35.85;97816.69;1723665;82;21531;-72
2022/06/21 10:44:23;;;;;;;672.33;68.17;;;;;;;31.38;36.27;97821.53;1732107;81;21146;-72
2022/06/21 10:46:53;;;;;;;20.25;5.70;;;;;;;31.07;38.53;97858.97;1722578;81;21017;-71
2022/06/21 10:50:02;;;;;;;11.40;4.80;;;;;;;30.11;46.34;97884.17;1721403;82;21210;-72
2022/06/21 10:52:56;;;;;;;8.63;4.53;;;;;;;28.69;53.33;97939.98;1708759;82;20985;-69
2022/06/21 10:55:34;;;;;;;10.08;5.00;;;;;;;26.67;59.23;97926.65;1731086;81;20959;-68
2022/06/21 10:58:27;;;;;;;7.70;6.15;;;;;;;25.14;65.53;97962.54;1700792;81;20993;-70
2022/06/21 11:01:17;;;;;;;9.70;6.20;;;;;;;24.24;69.85;97978.47;1728532;82;21433;-70
2022/06/21 11:04:14;;;;;;;8.78;5.10;;;;;;;23.69;73.32;97990.38;1710844;83;21315;-69
2022/06/21 11:07:07;;;;;;;6.12;1.90;;;;;;;23.33;74.10;98011.45;1703088;84;21581;-70
2022/06/21 11:10:05;;;;;;;5.33;2.00;;;;;;;22.96;70.38;98014.08;1700125;83;21093;-68
2022/06/21 11:13:04;;;;;;;3.87;1.70;;;;;;;22.71;70.75;98019.18;1703252;83;21303;-69
2022/06/21 11:16:05;;;;;;;4.10;1.45;;;;;;;22.62;70.30;98008.62;1683993;83;21106;-68
2022/06/21 11:19:04;;;;;;;2.65;1.60;;;;;;;22.67;69.73;98000.97;1707842;82;21135;-69
2022/06/21 11:21:51;;;;;;;1.92;1.80;;;;;;;22.90;69.64;98014.27;1719873;82;21082;-68
2022/06/21 11:24:48;;;;;;;6.08;1.20;;;;;;;23.10;68.01;98005.84;1701816;81;21564;-69
2022/06/21 11:27:48;;;;;;;4.40;0.90;;;;;;;23.23;66.54;98002.08;1726316;82;20991;-69
2022/06/21 11:30:57;;;;;;;2.80;1.27;;;;;;;23.33;65.59;98015.42;1705209;81;21564;-70
2022/06/21 11:34:09;;;;;;;1.67;0.70;;;;;;;23.46;65.64;98034.70;1732525;82;21265;-69
2022/06/21 11:37:01;;;;;;;3.92;0.85;;;;;;;23.51;63.53;98036.83;1769223;81;20932;-70
2022/06/21 11:40:00;;;;;;;2.40;0.70;;;;;;;23.52;62.37;98047.80;1747490;80;21594;-71
2022/06/21 11:42:51;;;;;;;2.52;0.60;;;;;;;23.41;61.93;98038.89;1758623;80;21311;-71
2022/06/21 11:45:45;;;;;;;5.03;1.10;;;;;;;23.03;62.09;98074.16;1753320;80;21085;-70
2022/06/21 11:48:36;;;;;;;2.92;0.57;;;;;;;22.57;63.76;98075.09;1752994;80;21158;-70
2022/06/21 11:51:20;;;;;;;2.33;0.75;;;;;;;22.18;64.98;98077.73;1746480;81;21332;-71
2022/06/21 11:54:12;;;;;;;1.80;0.82;;;;;;;21.75;66.13;98094.83;1749666;82;20982;-70
2022/06/21 11:56:50;;;;;;;3.05;1.52;;;;;;;21.37;65.07;98083.11;1747203;80;21027;-71
2022/06/21 11:59:37;;;;;;;2.58;1.50;;;;;;;21.08;63.73;98093.63;1735502;82;21014;-70
2022/06/21 12:02:18;;;;;;;1.37;1.00;;;;;;;20.88;64.61;98092.27;1746528;82;21519;-72
2022/06/21 12:05:20;;;;;;;4.35;1.98;;;;;;;20.82;64.80;98105.62;1747053;81;21002;-71
2022/06/21 12:08:02;;;;;;;6.15;1.12;;;;;;;20.82;64.84;98100.33;1746715;82;21029;-71
2022/06/21 12:10:52;;;;;;;3.90;1.17;;;;;;;20.88;64.62;98101.52;1746493;80;21093;-72
2022/06/21 12:13:42;;;;;;;5.60;1.60;;;;;;;20.92;64.52;98090.95;1746864;81;21077;-72
2022/06/21 12:16:29;;;;;;;8.50;1.40;;;;;;;21.02;65.06;98098.72;1707636;83;21480;-72
2022/06/21 12:19:07;;;;;;;4.08;1.30;;;;;;;21.06;65.54;98091.63;1705720;84;21163;-70
2022/06/21 12:21:41;;;;;;;2.95;1.45;;;;;;;21.12;65.73;98108.17;1721671;83;21050;-70
2022/06/21 12:24:15;;;;;;;16.37;1.70;;;;;;;21.02;65.82;98111.94;1707312;83;21081;-70
2022/06/21 12:26:44;;;;;;;4.78;1.65;;;;;;;20.79;66.64;98109.90;1721510;83;21496;-71
2022/06/21 12:29:17;;;;;;;3.65;1.40;;;;;;;20.55;66.77;98104.56;1705457;83;21101;-71
2022/06/21 12:31:50;;;;;;;3.83;1.62;;;;;;;20.34;67.19;98106.75;1673279;83;21095;-71
2022/06/21 12:34:34;;;;;;;3.60;1.50;;;;;;;20.18;67.92;98097.73;1705453;83;21042;-72
2022/06/21 12:37:12;;;;;;;2.22;1.65;;;;;;;20.14;68.50;98099.06;1720840;83;21056;-72
2022/06/21 12:39:56;;;;;;;2.55;1.57;;;;;;;20.16;69.41;98093.63;1704465;83;21379;-72
2022/06/21 12:42:50;;;;;;;3.15;1.30;;;;;;;20.17;69.47;98087.36;1683603;84;21127;-70
2022/06/21 12:45:46;;;;;;;2.12;1.50;;;;;;;20.21;69.40;98091.32;1716873;83;21045;-69
2022/06/21 12:48:28;;;;;;;3.35;1.77;;;;;;;20.33;69.73;98090.57;1751734;81;21094;-72
2022/06/21 12:51:16;;;;;;;2.12;1.30;;;;;;;20.48;68.66;98090.33;1736197;81;21727;-70
2022/06/21 12:54:07;;;;;;;2.62;1.50;;;;;;;20.63;67.75;98082.11;1736130;81;21104;-71
2022/06/21 12:56:53;;;;;;;1.77;0.93;;;;;;;20.71;64.47;98081.33;1753705;81;21154;-71
2022/06/21 12:59:47;;;;;;;1.00;1.00;;;;;;;20.76;61.10;98095.72;1723973;82;22010;-70
2022/06/21 13:02:42;;;;;;;4.15;0.90;;;;;;;20.91;58.29;98098.06;1736326;82;21026;-72
2022/06/21 13:05:35;;;;;;;2.12;1.10;;;;;;;21.13;56.11;98091.33;1756543;81;21518;-70
2022/06/21 13:08:30;;;;;;;2.50;1.15;;;;;;;21.28;55.38;98102.10;1751909;80;21501;-70
2022/06/21 13:11:16;;;;;;;4.35;1.00;;;;;;;21.37;54.76;98093.69;1735984;81;21010;-70
2022/06/21 13:14:20;;;;;;;1.90;1.20;;;;;;;21.44;55.05;98100.78;1736033;81;22265;-71
2022/06/21 13:17:25;;;;;;;1.70;1.35;;;;;;;21.51;55.46;98081.12;1735907;81;21085;-71
2022/06/21 13:20:05;;;;;;;4.65;1.15;;;;;;;21.80;55.89;98082.72;1736758;82;20995;-70
2022/06/21 13:22:59;;;;;;;1.17;0.93;;;;;;;22.11;53.97;98086.02;1744801;81;21026;-73
2022/06/21 13:25:51;;;;;;;2.92;0.98;;;;;;;22.33;53.43;98075.52;1719166;81;21016;-71
2022/06/21 13:28:26;;;;;;;1.75;0.90;;;;;;;22.46;51.76;98072.80;1726671;81;21077;-74
2022/06/21 13:31:01;;;;;;;2.20;0.98;;;;;;;22.46;50.22;98072.80;1752366;81;21193;-71
2022/06/21 13:33:33;;;;;;;2.25;1.17;;;;;;;22.32;49.46;98084.45;1756823;81;20987;-72
2022/06/21 13:36:27;;;;;;;5.47;0.93;;;;;;;22.18;49.12;98093.09;1750358;81;20948;-70
2022/06/21 13:39:28;;;;;;;0.93;0.78;;;;;;;22.11;47.29;98084.69;1728751;82;21230;-73
2022/06/21 13:44:56;;;;;;;2.20;1.00;;;;;;;21.87;46.92;98096.95;1736353;82;21513;-70
2022/06/21 13:47:50;;;;;;;2.08;1.00;;;;;;;21.93;47.17;98104.72;1736153;82;21010;-71
2022/06/21 13:50:34;;;;;;;2.55;1.00;;;;;;;21.93;46.50;98108.70;1736878;82;21033;-71
2022/06/21 13:53:27;;;;;;;3.65;1.30;;;;;;;21.77;48.26;98112.20;1736932;82;21328;-70
2022/06/21 13:56:22;;;;;;;1.30;1.20;;;;;;;21.45;50.40;98122.77;1737128;82;21494;-72
2022/06/21 13:59:03;;;;;;;1.75;1.27;;;;;;;21.10;51.28;98126.02;1737530;81;21014;-71
2022/06/21 14:02:25;;;;;;;1.20;1.10;;;;;;;20.85;52.31;98127.77;1737810;82;21022;-70
2022/06/21 14:05:06;;;;;;;3.08;1.30;;;;;;;20.75;53.22;98138.15;1738818;82;21027;-69
2022/06/21 14:07:49;;;;;;;3.58;1.45;;;;;;;20.64;53.37;98128.19;1739109;81;21132;-69
2022/06/21 14:10:27;;;;;;;3.05;1.15;;;;;;;20.56;53.57;98117.61;1739172;82;20972;-69
2022/06/21 14:13:07;;;;;;;1.20;1.10;;;;;;;20.50;53.28;98129.30;1739230;82;21007;-70
2022/06/21 14:15:46;;;;;;;4.25;0.90;;;;;;;20.47;50.96;98130.44;1739214;82;20999;-68
2022/06/21 14:18:28;;;;;;;1.25;1.00;;;;;;;20.42;48.67;98129.24;1739457;82;20987;-69
2022/06/21 14:21:34;;;;;;;1.77;1.15;;;;;;;20.38;47.34;98131.89;1739774;81;21792;-69
2022/06/21 14:24:16;;;;;;;1.45;0.90;;;;;;;20.26;47.44;98135.25;1739785;82;21019;-69
2022/06/21 14:26:50;;;;;;;1.00;0.90;;;;;;;20.19;48.34;98140.80;1739663;82;21030;-68
2022/06/21 14:29:43;;;;;;;4.00;1.22;;;;;;;20.21;49.15;98137.03;1739750;82;21000;-68
2022/06/21 14:32:21;;;;;;;1.32;1.20;;;;;;;20.22;49.55;98126.80;1740168;82;22989;-69
2022/06/21 14:35:11;;;;;;;1.37;1.27;;;;;;;20.34;50.07;98130.02;1739586;81;20971;-70
2022/06/21 14:37:56;;;;;;;1.55;1.35;;;;;;;20.52;50.35;98126.83;1739920;82;20947;-70
2022/06/21 14:40:30;;;;;;;1.20;1.00;;;;;;;20.82;50.55;98116.68;1739585;81;21022;-69
2022/06/21 14:43:02;;;;;;;6.42;1.42;;;;;;;21.07;50.04;98112.28;1739247;81;21091;-69
2022/06/21 14:45:46;;;;;;;5.53;1.70;;;;;;;21.13;50.39;98112.48;1735179;81;20956;-69
2022/06/21 14:48:25;;;;;;;1.40;1.30;;;;;;;21.14;50.81;98102.73;1739681;81;21127;-71
2022/06/21 14:51:09;;;;;;;3.42;1.20;;;;;;;21.14;50.70;98097.44;1739635;82;21527;-71
2022/06/21 14:54:01;;;;;;;1.10;1.10;;;;;;;21.09;49.71;98107.67;1739886;82;20924;-69
2022/06/21 14:56:45;;;;;;;1.55;0.90;;;;;;;21.08;49.34;98102.05;1739758;81;21439;-70
2022/06/21 14:59:32;;;;;;;1.85;0.90;;;;;;;21.10;45.66;98113.29;1739742;82;20995;-70
2022/06/21 15:02:34;;;;;;;1.82;0.95;;;;;;;21.08;45.40;98119.23;1739865;82;21321;-70
2022/06/21 15:05:40;;;;;;;3.75;1.10;;;;;;;21.05;45.35;98118.23;1740134;82;20966;-70
2022/06/21 15:08:36;;;;;;;1.17;1.02;;;;;;;20.94;45.31;98119.37;1739857;82;20940;-69
2022/06/21 15:11:56;;;;;;;2.20;0.95;;;;;;;20.87;45.52;98119.19;1739910;81;21074;-69
2022/06/21 15:14:54;;;;;;;1.15;0.85;;;;;;;20.73;45.65;98122.95;1739801;82;21046;-70
2022/06/21 15:17:46;;;;;;;7.40;1.20;;;;;;;20.57;46.28;98124.55;1739874;81;21155;-69
2022/06/21 15:20:31;;;;;;;0.90;0.90;;;;;;;20.51;46.85;98133.09;1739842;81;20920;-70
2022/06/21 15:23:15;;;;;;;2.08;1.10;;;;;;;20.50;47.63;98128.80;1740142;81;20951;-70
2022/06/21 15:25:56;;;;;;;4.67;1.37;;;;;;;20.60;47.89;98133.94;1739872;82;20988;-69
2022/06/21 15:28:34;;;;;;;1.55;1.20;;;;;;;20.67;47.92;98128.86;1739762;81;21050;-69
2022/06/21 15:31:25;;;;;;;2.47;1.15;;;;;;;20.69;48.53;98136.14;1739800;82;21190;-70
2022/06/21 15:34:04;;;;;;;1.72;1.62;;;;;;;20.67;48.19;98134.14;1739656;82;21440;-69
2022/06/21 15:36:51;;;;;;;2.67;1.40;;;;;;;20.60;49.20;98114.96;1736012;81;20999;-70
2022/06/21 15:39:38;;;;;;;2.98;1.30;;;;;;;20.65;49.17;98122.41;1739905;81;20995;-68
2022/06/21 15:42:22;;;;;;;1.30;1.20;;;;;;;20.62;49.22;98120.09;1739785;82;20931;-70
2022/06/21 15:45:01;;;;;;;2.50;1.50;;;;;;;20.52;49.70;98120.23;1739926;81;21891;-70
2022/06/21 15:50:53;;;;;;;3.08;1.05;;;;;;;20.50;49.60;98131.44;1725537;81;20943;-70
2022/06/21 15:53:55;;;;;;;7.25;1.87;;;;;;;20.47;49.57;98129.11;1739801;81;20983;-69
2022/06/21 15:56:46;;;;;;;1.42;1.15;;;;;;;20.46;49.96;98130.09;1739974;82;21006;-69
2022/06/21 15:59:37;;;;;;;1.77;1.10;;;;;;;20.53;50.68;98119.73;1740146;81;21778;-68
2022/06/21 16:02:27;;;;;;;1.32;1.20;;;;;;;20.58;49.88;98135.42;1739690;82;21464;-70
2022/06/21 16:05:02;;;;;;;1.60;1.27;;;;;;;20.63;50.95;98127.03;1740108;82;21450;-70
2022/06/21 16:07:39;;;;;;;4.78;1.62;;;;;;;20.73;50.12;98125.09;1739781;82;21007;-69
2022/06/21 16:10:06;;;;;;;1.37;1.20;;;;;;;20.79;49.54;98132.85;1739561;81;20955;-69
2022/06/21 16:12:39;;;;;;;1.10;1.00;;;;;;;20.79;49.03;98137.64;1740180;82;21157;-70
2022/06/21 16:15:13;;;;;;;3.12;1.00;;;;;;;20.77;47.97;98138.33;1740283;82;20967;-71
2022/06/21 16:17:44;;;;;;;2.37;1.20;;;;;;;20.72;47.50;98137.14;1739643;81;20999;-69
2022/06/21 16:20:15;;;;;;;2.47;1.15;;;;;;;20.62;47.71;98128.02;1739750;81;21086;-69
2022/06/21 16:22:56;;;;;;;2.95;0.90;;;;;;;20.55;45.32;98130.48;1740229;81;20994;-69
2022/06/21 16:25:34;;;;;;;5.35;0.82;;;;;;;20.45;43.23;98142.14;1739741;81;21256;-69
2022/06/21 16:28:05;;;;;;;2.00;1.00;;;;;;;20.29;41.96;98157.37;1738587;81;21502;-70
2022/06/21 16:34:19;;;;;;;0.68;0.60;;;;;;;20.03;41.97;98152.09;1736519;82;20995;-70
2022/06/21 16:37:16;;;;;;;2.52;0.90;;;;;;;19.96;41.61;98147.13;1739802;82;20955;-69
2022/06/21 16:40:00;;;;;;;3.12;1.30;;;;;;;19.92;41.90;98144.45;1713948;81;21443;-69
2022/06/21 16:43:01;;;;;;;2.45;0.90;;;;;;;19.90;40.36;98153.01;1733307;81;20939;-69
2022/06/21 16:45:50;;;;;;;1.45;1.00;;;;;;;19.86;40.38;98138.46;1739917;82;20928;-69
2022/06/21 16:48:28;;;;;;;1.60;0.82;;;;;;;19.82;40.11;98126.55;1740091;81;21427;-69
2022/06/21 16:51:11;;;;;;;2.77;0.80;;;;;;;19.76;40.61;98126.70;1739860;81;20943;-69
2022/06/21 16:53:45;;;;;;;1.85;0.75;;;;;;;19.74;40.77;98133.11;1731202;82;21228;-69
2022/06/21 16:56:23;;;;;;;1.70;0.70;;;;;;;19.72;41.84;98128.47;1737251;81;21563;-69
2022/06/21 16:59:07;;;;;;;2.40;1.10;;;;;;;19.70;41.38;98125.98;1739833;82;21547;-69
2022/06/21 17:01:44;;;;;;;3.20;1.12;;;;;;;19.67;41.80;98118.37;1738956;81;21003;-69
2022/06/21 17:04:23;;;;;;;1.10;1.00;;;;;;;19.62;41.96;98121.95;1739170;81;21479;-69
2022/06/21 17:06:56;;;;;;;4.65;0.98;;;;;;;19.56;41.95;98124.73;1739728;81;21221;-69
2022/06/21 17:09:32;;;;;;;1.35;0.70;;;;;;;19.51;42.56;98126.99;1739761;82;20931;-68
2022/06/21 17:12:10;;;;;;;2.83;0.95;;;;;;;19.49;42.49;98121.50;1740086;82;21073;-69
2022/06/21 17:14:59;;;;;;;1.15;0.95;;;;;;;19.43;42.66;98126.05;1739749;82;20967;-69
2022/06/21 17:17:53;;;;;;;1.62;0.88;;;;;;;19.37;42.97;98130.14;1740125;82;20959;-68
2022/06/21 17:20:41;;;;;;;4.83;1.02;;;;;;;19.31;43.38;98133.86;1739896;82;21114;-68
2022/06/21 17:23:50;;;;;;;1.60;0.98;;;;;;;19.22;43.96;98135.09;1733018;82;21431;-69
2022/06/21 17:26:43;;;;;;;2.15;0.75;;;;;;;19.15;44.30;98134.55;1739789;82;20991;-69
2022/06/21 17:29:24;;;;;;;2.92;0.90;;;;;;;19.05;44.54;98133.77;1739892;82;20959;-70
2022/06/21 17:31:54;;;;;;;1.02;0.80;;;;;;;18.96;44.93;98130.72;1739346;81;20999;-69
2022/06/21 17:34:45;;;;;;;1.15;0.80;;;;;;;18.88;45.18;98127.50;1739251;81;21077;-69
2022/06/21 17:37:38;;;;;;;1.37;1.00;;;;;;;18.80;45.59;98128.72;1739854;82;20999;-69
2022/06/21 17:40:13;;;;;;;1.00;0.90;;;;;;;18.70;45.75;98114.30;1739993;82;20999;-69
2022/06/21 17:43:13;;;;;;;2.92;1.30;;;;;;;18.59;45.73;98117.95;1739807;81;21030;-69
2022/06/21 17:45:51;;;;;;;1.45;1.15;;;;;;;18.49;45.64;98109.25;1739981;81;21423;-70
2022/06/21 17:48:23;;;;;;;1.22;1.02;;;;;;;18.38;45.99;98113.41;1739714;82;21122;-69
2022/06/21 17:50:56;;;;;;;2.80;0.82;;;;;;;18.29;46.58;98120.84;1740137;81;21023;-69
2022/06/21 17:53:32;;;;;;;3.83;0.90;;;;;;;18.20;47.04;98112.00;1739774;81;21022;-69
2022/06/21 17:56:10;;;;;;;1.60;0.90;;;;;;;18.12;47.23;98122.44;1739982;82;20940;-69
2022/06/21 17:58:47;;;;;;;2.40;1.10;;;;;;;18.03;47.51;98120.65;1739379;81;21014;-69
2022/06/21 18:01:53;;;;;;;4.70;1.50;;;;;;;17.95;47.79;98123.18;1739810;81;21257;-69
2022/06/21 18:04:31;;;;;;;1.60;0.90;;;;;;;17.87;47.94;98127.83;1728192;81;21018;-69
2022/06/21 18:07:36;;;;;;;1.20;1.10;;;;;;;17.78;48.25;98123.43;1739574;81;21014;-69
2022/06/21 18:10:24;;;;;;;1.60;1.05;;;;;;;17.70;48.51;98124.61;1739779;82;21027;-69
2022/06/21 18:13:21;;;;;;;3.58;0.90;;;;;;;17.60;48.84;98132.95;1719273;81;21077;-69
2022/06/21 18:16:33;;;;;;;1.92;1.17;;;;;;;17.52;49.03;98126.27;1739626;81;20932;-68
2022/06/21 18:19:39;;;;;;;2.20;1.30;;;;;;;17.44;49.31;98134.83;1698583;84;21072;-69
2022/06/21 18:22:47;;;;;;;1.05;0.85;;;;;;;17.33;49.94;98132.36;1640749;87;20983;-70
2022/06/21 18:25:38;;;;;;;3.65;1.47;;;;;;;17.23;50.63;98144.16;1714488;83;20978;-69
2022/06/21 18:28:40;;;;;;;3.45;1.30;;;;;;;17.13;50.90;98147.28;1714597;83;20958;-68
2022/06/21 18:31:33;;;;;;;2.77;1.70;;;;;;;17.05;51.36;98154.17;1714514;83;22164;-68
2022/06/21 18:34:00;;;;;;;1.90;1.50;;;;;;;16.96;51.61;98145.33;1714530;82;20938;-68
2022/06/21 18:37:00;;;;;;;1.62;1.10;;;;;;;16.87;51.90;98144.33;1701947;83;20934;-68
2022/06/21 18:40:04;;;;;;;1.95;1.25;;;;;;;16.81;51.88;98156.67;1714004;82;21002;-68
2022/06/21 18:43:12;;;;;;;2.08;1.30;;;;;;;16.75;52.18;98162.48;1701999;83;21017;-68
2022/06/21 18:46:10;;;;;;;1.45;1.35;;;;;;;16.69;52.51;98170.05;1714574;82;21163;-68
2022/06/21 18:48:45;;;;;;;3.27;1.35;;;;;;;16.61;52.67;98164.11;1714547;83;20990;-68
2022/06/21 18:51:36;;;;;;;2.47;1.42;;;;;;;16.54;52.96;98159.06;1715069;82;26328;-68
2022/06/21 18:54:35;;;;;;;2.77;1.22;;;;;;;16.48;53.04;98166.15;1714726;83;21039;-68
2022/06/21 18:57:22;;;;;;;1.77;1.30;;;;;;;16.40;53.59;98165.97;1714821;82;20967;-69
2022/06/21 19:00:03;;;;;;;1.50;1.30;;;;;;;16.30;54.13;98170.35;1714773;83;21201;-69
2022/06/21 19:02:48;;;;;;;1.50;1.40;;;;;;;16.20;54.44;98172.91;1714757;83;21068;-69
2022/06/21 19:08:30;;;;;;;5.12;1.40;;;;;;;16.02;53.01;98167.91;1714844;82;21426;-68
2022/06/21 19:11:26;;;;;;;2.37;1.42;;;;;;;15.95;52.29;98167.62;1714780;82;20994;-68
2022/06/21 19:14:03;;;;;;;1.72;1.17;;;;;;;15.88;51.76;98178.26;1714603;82;21116;-68
2022/06/21 19:16:47;;;;;;;2.08;1.00;;;;;;;15.82;50.94;98171.73;1714958;83;21011;-68
2022/06/21 19:19:31;;;;;;;4.78;1.30;;;;;;;15.77;50.80;98171.78;1714752;82;21037;-68
2022/06/21 19:22:23;;;;;;;3.35;1.25;;;;;;;15.68;50.38;98178.60;1714705;83;21089;-68
2022/06/21 19:25:27;;;;;;;4.87;1.45;;;;;;;15.61;50.40;98182.67;1714517;82;20950;-68
2022/06/21 19:28:25;;;;;;;1.10;1.00;;;;;;;15.54;50.65;98179.36;1710156;82;21119;-68
2022/06/21 19:31:38;;;;;;;1.55;1.20;;;;;;;15.46;50.67;98191.29;1714740;82;21041;-68
2022/06/21 19:34:43;;;;;;;0.90;0.90;;;;;;;15.38;50.99;98191.58;1739663;81;21046;-70
2022/06/21 19:37:25;;;;;;;1.20;1.10;;;;;;;15.30;50.95;98192.66;1739865;82;21352;-68
2022/06/21 19:40:12;;;;;;;2.10;1.60;;;;;;;15.23;51.27;98188.39;1740024;82;21011;-69
2022/06/21 19:43:26;;;;;;;1.42;1.32;;;;;;;15.16;51.56;98185.93;1739919;82;21255;-69
2022/06/21 19:46:24;;;;;;;2.20;1.20;;;;;;;15.08;52.03;98187.84;1739736;82;21057;-68
2022/06/21 19:48:59;;;;;;;1.45;1.35;;;;;;;14.99;52.47;98182.49;1739832;82;21047;-68
2022/06/21 19:51:33;;;;;;;2.42;1.47;;;;;;;14.92;52.91;98176.94;1739864;82;20963;-68
2022/06/21 19:54:05;;;;;;;2.85;1.40;;;;;;;14.87;53.34;98182.17;1739805;82;21440;-69
2022/06/21 19:56:41;;;;;;;1.47;1.37;;;;;;;14.81;53.73;98182.17;1740027;82;21253;-69
2022/06/21 19:59:21;;;;;;;1.65;1.52;;;;;;;14.77;54.11;98184.70;1739007;81;21012;-69
2022/06/21 20:02:11;;;;;;;1.55;1.45;;;;;;;14.71;54.39;98196.48;1739886;82;20999;-68
2022/06/21 20:05:00;;;;;;;2.83;1.62;;;;;;;14.63;54.45;98193.61;1739617;81;20954;-68
2022/06/21 20:07:31;;;;;;;1.60;1.50;;;;;;;14.56;54.69;98189.83;1731141;82;20951;-69
2022/06/21 20:10:00;;;;;;;4.35;1.60;;;;;;;14.50;54.96;98195.53;1740511;81;21136;-68
2022/06/21 20:12:28;;;;;;;1.50;1.40;;;;;;;14.44;55.10;98184.22;1739694;82;20935;-68
2022/06/21 20:15:18;;;;;;;2.42;1.85;;;;;;;14.37;55.20;98184.33;1739834;82;20994;-68
2022/06/21 20:17:54;;;;;;;2.67;1.60;;;;;;;14.30;55.34;98178.73;1739796;81;20999;-69
2022/06/21 20:20:38;;;;;;;1.82;1.70;;;;;;;14.23;55.56;98185.84;1740065;81;21089;-68